• Join FlightAware (Why Join?)
  • Login
  • US Flag 
07:06AM EDT


 

Airport Tracker/Info


-or-


 

Live Flight TrackerFlight Track Log ✈ N510SR ✈ 24-Jul-2013 ✈ EGGW / LTN - KTEB

Flight Track Log - Related Links

Times and Time Zones

All times are in EDT time to prevent confusion due to time zone crossing. See the N510SR flight status page for this flight to view local times or setup timezone preferences in your user account.

Time Position Orientation Groundspeed Altitude Reporting Facility
EDT Latitude Longitude Course Direction KTS MPH feet Rate Location/Type
04:26PM 53.9575 -17.9640 288° West  Level Estimated
04:27PM 53.9654 -18.1606 274° West  Level Estimated
04:28PM 53.9730 -18.3573 274° West  Level Estimated
04:29PM 53.9803 -18.5540 274° West  Level Estimated
04:30PM 53.9872 -18.7509 274° West  Level Estimated
04:31PM 53.9938 -18.9477 273° West  Level Estimated
04:32PM 54.0000 -19.1447 273° West  Level Estimated
04:33PM 54.0060 -19.3417 273° West  Level Estimated
04:34PM 54.0117 -19.5388 273° West  Level Estimated
04:35PM 54.0170 -19.7359 273° West  Level Estimated
04:36PM 54.0219 -19.9330 273° West  Level Estimated
04:37PM 54.0266 -20.1302 272° West  Level Estimated
04:38PM 54.0310 -20.3275 272° West  Level Estimated
04:39PM 54.0350 -20.5248 272° West  Level Estimated
04:39PM 54.0000 -20.0000 274° West 449 517 38,000  Level ETMS Enhanced Traffic Management System
04:40PM 54.0387 -20.7221 272° West  Level Estimated
04:41PM 54.0421 -20.9195 272° West  Level Estimated
04:42PM 54.0451 -21.1169 272° West  Level Estimated
04:43PM 54.0479 -21.3143 271° West  Level Estimated
04:44PM 54.0503 -21.5117 271° West  Level Estimated
04:45PM 54.0744 -22.3372 272° West 449 517 38,000  Level FlightAware Transoceanic
04:46PM 54.0789 -22.5501 272° West 449 517 38,000  Level FlightAware Transoceanic
04:47PM 54.0831 -22.7630 272° West 449 517 38,000  Level FlightAware Transoceanic
04:48PM 54.0868 -22.9759 272° West 449 517 38,000  Level FlightAware Transoceanic
04:49PM 54.0902 -23.1889 271° West 449 517 38,000  Level FlightAware Transoceanic
04:50PM 54.0932 -23.4019 271° West 449 517 38,000  Level FlightAware Transoceanic
04:51PM 54.0959 -23.6149 271° West 449 517 38,000  Level FlightAware Transoceanic
04:52PM 54.0981 -23.8279 271° West 449 517 38,000  Level FlightAware Transoceanic
04:53PM 54.1000 -24.0410 271° West 449 517 38,000  Level FlightAware Transoceanic
04:54PM 54.1015 -24.2541 271° West 449 517 38,000  Level FlightAware Transoceanic
04:55PM 54.1026 -24.4672 270° West 449 517 38,000  Level FlightAware Transoceanic
04:56PM 54.1034 -24.6803 270° West 449 517 38,000  Level FlightAware Transoceanic
04:57PM 54.1038 -24.8934 270° West 449 517 38,000  Level FlightAware Transoceanic
04:58PM 54.1038 -25.1066 270° West 449 517 38,000  Level FlightAware Transoceanic
04:59PM 54.1034 -25.3197 270° West 449 517 38,000  Level FlightAware Transoceanic
05:00PM 54.1026 -25.5328 270° West 449 517 38,000  Level FlightAware Transoceanic
05:01PM 54.1015 -25.7459 269° West 449 517 38,000  Level FlightAware Transoceanic
05:02PM 54.1000 -25.9590 269° West 449 517 38,000  Level FlightAware Transoceanic
05:03PM 54.0981 -26.1721 269° West 449 517 38,000  Level FlightAware Transoceanic
05:04PM 54.0959 -26.3851 269° West 449 517 38,000  Level FlightAware Transoceanic
05:05PM 54.0932 -26.5981 269° West 449 517 38,000  Level FlightAware Transoceanic
05:06PM 54.0902 -26.8111 269° West 449 517 38,000  Level FlightAware Transoceanic
05:07PM 54.0868 -27.0241 268° West 449 517 38,000  Level FlightAware Transoceanic
05:08PM 54.0831 -27.2370 268° West 449 517 38,000  Level FlightAware Transoceanic
05:09PM 54.0789 -27.4499 268° West 449 517 38,000  Level FlightAware Transoceanic
05:10PM 54.0744 -27.6628 268° West 449 517 38,000  Level FlightAware Transoceanic
05:11PM 54.0695 -27.8755 268° West 449 517 38,000  Level FlightAware Transoceanic
05:12PM 54.0643 -28.0883 267° West 449 517 38,000  Level FlightAware Transoceanic
05:13PM 54.0586 -28.3010 267° West 449 517 38,000  Level FlightAware Transoceanic
05:14PM 54.0526 -28.5136 267° West 449 517 38,000  Level FlightAware Transoceanic
05:15PM 54.0462 -28.7262 267° West 449 517 38,000  Level FlightAware Transoceanic
05:16PM 54.0394 -28.9387 267° West 449 517 38,000  Level FlightAware Transoceanic
05:17PM 54.0323 -29.1511 267° West 449 517 38,000  Level FlightAware Transoceanic
05:18PM 54.0248 -29.3634 266° West 449 517 38,000  Level FlightAware Transoceanic
05:19PM 54.0169 -29.5757 266° West 449 517 38,000  Level FlightAware Transoceanic
05:20PM 54.0086 -29.7879 266° West 449 517 38,000 480 Level FlightAware Transoceanic
05:21PM 54.0006 -29.9847 266° West  Level FlightAware Approximate
05:22PM 53.9923 -30.1814 266° West  Level FlightAware Approximate
05:23PM 53.9756 -30.1613 256° West  Level FlightAware Approximate
05:23PM 54.0000 -30.0000 256° West 447 514 40,000  Level ETMS Enhanced Traffic Management System
05:24PM 53.9465 -30.3521 256° West  Level FlightAware Approximate
05:25PM 53.9171 -30.5425 255° West  Level FlightAware Approximate
05:26PM 53.8873 -30.7327 255° West  Level FlightAware Approximate
05:27PM 53.8573 -30.9227 255° West  Level FlightAware Approximate
05:28PM 53.8270 -31.1124 255° West  Level FlightAware Approximate
05:29PM 53.7091 -31.8302 254° West 447 514 40,000  Level FlightAware Transoceanic
05:30PM 53.6751 -32.0320 254° West 447 514 40,000  Level FlightAware Transoceanic
05:31PM 53.6407 -32.2334 254° West 447 514 40,000  Level FlightAware Transoceanic
05:32PM 53.6060 -32.4345 254° West 447 514 40,000  Level FlightAware Transoceanic
05:33PM 53.5709 -32.6353 254° West 447 514 40,000  Level FlightAware Transoceanic
05:34PM 53.5356 -32.8357 253° West 447 514 40,000  Level FlightAware Transoceanic
05:35PM 53.4998 -33.0358 253° West 447 514 40,000  Level FlightAware Transoceanic
05:36PM 53.4638 -33.2356 253° West 447 514 40,000  Level FlightAware Transoceanic
05:37PM 53.4274 -33.4350 253° West 447 514 40,000  Level FlightAware Transoceanic
05:38PM 53.3907 -33.6341 253° West 447 514 40,000  Level FlightAware Transoceanic
05:39PM 53.3536 -33.8329 253° West 447 514 40,000  Level FlightAware Transoceanic
05:40PM 53.3163 -34.0312 252° West 447 514 40,000  Level FlightAware Transoceanic
05:41PM 53.2786 -34.2293 252° West 447 514 40,000  Level FlightAware Transoceanic
05:42PM 53.2406 -34.4270 252° West 447 514 40,000  Level FlightAware Transoceanic
05:43PM 53.2022 -34.6243 252° West 447 514 40,000  Level FlightAware Transoceanic
05:44PM 53.1635 -34.8213 252° West 447 514 40,000  Level FlightAware Transoceanic
05:45PM 53.1245 -35.0179 252° West 447 514 40,000  Level FlightAware Transoceanic
05:46PM 53.0852 -35.2142 251° West 447 514 40,000  Level FlightAware Transoceanic
05:47PM 53.0455 -35.4101 251° West 447 514 40,000  Level FlightAware Transoceanic
05:48PM 53.0056 -35.6057 251° West 447 514 40,000  Level FlightAware Transoceanic
05:49PM 52.9653 -35.8008 251° West 447 514 40,000  Level FlightAware Transoceanic
05:50PM 52.9246 -35.9957 251° West 447 514 40,000  Level FlightAware Transoceanic
05:51PM 52.8837 -36.1901 251° West 447 514 40,000  Level FlightAware Transoceanic
05:52PM 52.8425 -36.3842 251° West 447 514 40,000  Level FlightAware Transoceanic
05:53PM 52.8009 -36.5779 250° West 447 514 40,000  Level FlightAware Transoceanic
05:54PM 52.7590 -36.7713 250° West 447 514 40,000  Level FlightAware Transoceanic
05:55PM 52.7168 -36.9642 250° West 447 514 40,000  Level FlightAware Transoceanic
05:56PM 52.6743 -37.1568 250° West 447 514 40,000  Level FlightAware Transoceanic
05:57PM 52.6315 -37.3491 250° West 447 514 40,000  Level FlightAware Transoceanic
05:58PM 52.5884 -37.5409 250° West 447 514 40,000  Level FlightAware Transoceanic
05:59PM 52.5449 -37.7324 249° West 447 514 40,000  Level FlightAware Transoceanic
06:00PM 52.5012 -37.9235 249° West 447 514 40,000  Level FlightAware Transoceanic
06:01PM 52.4572 -38.1142 249° West 447 514 40,000  Level FlightAware Transoceanic
06:02PM 52.4128 -38.3045 249° West 447 514 40,000  Level FlightAware Transoceanic
06:03PM 52.3681 -38.4944 249° West 447 514 40,000  Level FlightAware Transoceanic
06:04PM 52.3232 -38.6840 249° West 447 514 40,000  Level FlightAware Transoceanic
06:05PM 52.2779 -38.8732 249° West 447 514 40,000  Level FlightAware Transoceanic
06:06PM 52.2323 -39.0619 248° West 447 514 40,000  Level FlightAware Transoceanic
06:07PM 52.1865 -39.2503 248° West 447 514 40,000  Level FlightAware Transoceanic
06:08PM 52.1403 -39.4383 248° West 447 514 40,000  Level FlightAware Transoceanic
06:09PM 52.0938 -39.6259 248° West 447 514 40,000  Level FlightAware Transoceanic
06:10PM 52.0471 -39.8132 248° West 447 514 40,000 720 Level FlightAware Transoceanic
06:11PM 52.0032 -39.9876 248° West  Level FlightAware Approximate
06:12PM 51.9589 -40.1616 248° West  Level FlightAware Approximate
06:13PM 51.9637 -40.1502 249° West  Level FlightAware Approximate
06:13PM 52.0000 -40.0000 249° West 428 493 43,000  Level ETMS Enhanced Traffic Management System
06:14PM 51.9211 -40.3251 249° West  Level FlightAware Approximate
06:15PM 51.8782 -40.4997 248° West  Level FlightAware Approximate
06:16PM 51.8351 -40.6740 248° West  Level FlightAware Approximate
06:17PM 51.7917 -40.8479 248° West  Level FlightAware Approximate
06:18PM 51.7481 -41.0215 248° West  Level FlightAware Approximate
06:19PM 51.7042 -41.1947 248° West  Level FlightAware Approximate
06:20PM 51.6902 -41.2524 248° West 428 493 43,000  Level FlightAware Transoceanic
06:21PM 51.6449 -41.4300 248° West 428 493 43,000  Level FlightAware Transoceanic
06:22PM 51.5992 -41.6071 247° West 428 493 43,000  Level FlightAware Transoceanic
06:23PM 51.5534 -41.7839 247° West 428 493 43,000  Level FlightAware Transoceanic
06:24PM 51.5072 -41.9603 247° West 428 493 43,000  Level FlightAware Transoceanic
06:25PM 51.4608 -42.1364 247° West 428 493 43,000  Level FlightAware Transoceanic
06:26PM 51.4142 -42.3121 247° West 428 493 43,000  Level FlightAware Transoceanic
06:27PM 51.3672 -42.4875 247° West 428 493 43,000  Level FlightAware Transoceanic
06:28PM 51.3200 -42.6625 247° West 428 493 43,000  Level FlightAware Transoceanic
06:29PM 51.2726 -42.8372 246° West 428 493 43,000  Level FlightAware Transoceanic
06:30PM 51.2249 -43.0114 246° West 428 493 43,000  Level FlightAware Transoceanic
06:31PM 51.1769 -43.1853 246° West 428 493 43,000  Level FlightAware Transoceanic
06:32PM 51.1287 -43.3589 246° West 428 493 43,000  Level FlightAware Transoceanic
06:33PM 51.0802 -43.5321 246° West 428 493 43,000  Level FlightAware Transoceanic
06:34PM 51.0315 -43.7049 246° West 428 493 43,000  Level FlightAware Transoceanic
06:35PM 50.9825 -43.8774 246° West 428 493 43,000  Level FlightAware Transoceanic
06:36PM 50.9333 -44.0495 246° West 428 493 43,000  Level FlightAware Transoceanic
06:37PM 50.8838 -44.2212 245° Southwest 428 493 43,000  Level FlightAware Transoceanic
06:38PM 50.8340 -44.3926 245° Southwest 428 493 43,000  Level FlightAware Transoceanic
06:39PM 50.7840 -44.5636 245° Southwest 428 493 43,000  Level FlightAware Transoceanic
06:40PM 50.7338 -44.7342 245° Southwest 428 493 43,000  Level FlightAware Transoceanic
06:41PM 50.6833 -44.9045 245° Southwest 428 493 43,000  Level FlightAware Transoceanic
06:42PM 50.6325 -45.0744 245° Southwest 428 493 43,000  Level FlightAware Transoceanic
06:43PM 50.5815 -45.2440 245° Southwest 428 493 43,000  Level FlightAware Transoceanic
06:44PM 50.5303 -45.4131 244° Southwest 428 493 43,000  Level FlightAware Transoceanic
06:45PM 50.4788 -45.5819 244° Southwest 428 493 43,000  Level FlightAware Transoceanic
06:46PM 50.4271 -45.7504 244° Southwest 428 493 43,000  Level FlightAware Transoceanic
06:47PM 50.3751 -45.9184 244° Southwest 428 493 43,000  Level FlightAware Transoceanic
06:48PM 50.3229 -46.0861 244° Southwest 428 493 43,000  Level FlightAware Transoceanic
06:49PM 50.2705 -46.2534 244° Southwest 428 493 43,000  Level FlightAware Transoceanic
06:50PM 50.2178 -46.4204 244° Southwest 428 493 43,000  Level FlightAware Transoceanic
06:51PM 50.1649 -46.5870 244° Southwest 428 493 43,000  Level FlightAware Transoceanic
06:52PM 50.1117 -46.7532 243° Southwest 428 493 43,000  Level FlightAware Transoceanic
06:53PM 50.0583 -46.9191 243° Southwest 428 493 43,000  Level FlightAware Transoceanic
06:54PM 50.0047 -47.0846 243° Southwest 428 493 43,000  Level FlightAware Transoceanic
06:55PM 49.9508 -47.2497 243° Southwest 428 493 43,000  Level FlightAware Transoceanic
06:56PM 49.8967 -47.4144 243° Southwest 428 493 43,000  Level FlightAware Transoceanic
06:57PM 49.8424 -47.5788 243° Southwest 428 493 43,000  Level FlightAware Transoceanic
06:58PM 49.7878 -47.7428 243° Southwest 428 493 43,000  Level FlightAware Transoceanic
06:59PM 49.7330 -47.9064 243° Southwest 428 493 43,000  Level FlightAware Transoceanic
07:00PM 49.6780 -48.0697 242° Southwest 428 493 43,000  Level FlightAware Transoceanic
07:01PM 49.6227 -48.2326 242° Southwest 428 493 43,000  Level FlightAware Transoceanic
07:02PM 49.5672 -48.3951 242° Southwest 428 493 43,000  Level FlightAware Transoceanic
07:03PM 49.5115 -48.5573 242° Southwest 428 493 43,000  Level FlightAware Transoceanic
07:04PM 49.4556 -48.7190 242° Southwest 428 493 43,000  Level FlightAware Transoceanic
07:05PM 49.3994 -48.8804 242° Southwest 428 493 43,000  Level FlightAware Transoceanic
07:06PM 49.3430 -49.0415 242° Southwest 428 493 43,000  Level FlightAware Transoceanic
07:07PM 49.2864 -49.2022 242° Southwest 428 493 43,000  Level FlightAware Transoceanic
07:08PM 49.2295 -49.3625 241° Southwest 428 493 43,000  Level FlightAware Transoceanic
07:09PM 49.1725 -49.5224 241° Southwest 428 493 43,000  Level FlightAware Transoceanic
07:10PM 49.1152 -49.6820 241° Southwest 428 493 43,000  Level FlightAware Transoceanic
07:11PM 49.0577 -49.8412 241° Southwest 428 493 43,000  Level FlightAware Transoceanic
07:12PM 48.9967 -49.9915 238° Southwest  Level FlightAware Approximate
07:13PM 49.0000 -49.9884 270° West  Level FlightAware Approximate
07:14PM 48.9643 -50.1558 251° West  Level FlightAware Approximate
07:15PM 48.9259 -50.3224 251° West  Level FlightAware Approximate
07:15PM 49.0000 -50.0000 251° West 357 411 43,000  Level ETMS Enhanced Traffic Management System
07:15PM 49.0000 -49.8833 250° West 400 460 43,100 60 Climbing Gander Center
07:16PM 48.8873 -50.4887 251° West  Level FlightAware Approximate
07:16PM 48.9667 -50.0500 253° West 400 460 43,100  Level Gander Center
07:17PM 48.8479 -50.6571 250° West  Level FlightAware Approximate
07:17PM 48.9333 -50.2167 253° West 400 460 43,000  Level Gander Center
07:18PM 48.8083 -50.8251 250° West  Level FlightAware Approximate
07:18PM 48.9000 -50.3833 253° West 400 460 43,100  Level Gander Center
07:19PM 48.7684 -50.9929 250° West  Level FlightAware Approximate
07:19PM 48.8500 -50.5333 243° Southwest 400 460 43,100  Level Gander Center
07:20PM 48.7296 -51.1611 251° West  Level FlightAware Approximate
07:20PM 48.8167 -50.7000 253° West 400 460 43,100  Level Gander Center
07:21PM 48.8005 -50.8577 250° West 357 411 43,000  Descending FlightAware Transoceanic
07:21PM 48.7833 -50.8667 253° West 400 460 43,100  Climbing Gander Center
07:22PM 48.7500 -51.0167 251° West 400 460 43,000  Descending Gander Center
07:23PM 48.7000 -51.1833 246° West 410 472 43,100  Climbing Gander Center
07:24PM 48.6667 -51.3500 253° West 410 472 43,100 -60 Level Gander Center
07:25PM 48.6333 -51.5000 251° West 410 472 43,000  Descending Gander Center
07:26PM 48.5833 -51.6667 246° West 410 472 43,100  Climbing Gander Center
07:27PM 48.5500 -51.8167 251° West 410 472 43,000  Descending Moncton Center
07:27PM 48.5500 -51.8167 251° West 410 472 43,100 60 Climbing Gander Center
07:28PM 48.5167 -51.9833 253° West 410 472 43,100  Level Gander Center
07:29PM 48.4833 -52.1500 253° West 410 472 43,100  Level Gander Center
07:30PM 48.4500 -52.3333 255° West 410 472 43,100  Level Gander Center
07:31PM 48.4000 -52.4667 241° Southwest 410 472 43,100  Level Gander Center
07:32PM 48.3500 -52.6500 248° West 410 472 43,100  Level Gander Center
07:33PM 48.3167 -52.7833 249° West 400 460 43,100  Level Gander Center
07:34PM 48.2667 -52.9667 248° West 400 460 43,100  Level Gander Center
07:35PM 48.2333 -53.1000 249° West 400 460 43,100 -60 Level Gander Center
07:36PM 48.2000 -53.2833 255° West 400 460 43,000  Descending Gander Center
07:37PM 48.1500 -53.4167 241° Southwest 400 460 43,100  Climbing Gander Center
07:38PM 48.1167 -53.5667 252° West 410 472 43,000  Descending Gander Center
07:39PM 48.0833 -53.7500 255° West 410 472 43,100  Climbing Gander Center
07:40PM 48.0333 -53.8833 241° Southwest 410 472 43,000  Descending Gander Center
07:41PM 48.0000 -54.0667 255° West 410 472 43,100  Climbing Gander Center
07:42PM 47.9500 -54.2167 244° Southwest 410 472 43,100  Level Gander Center
07:43PM 47.9167 -54.3667 252° West 410 472 43,100  Level Gander Center
07:44PM 47.8833 -54.5333 253° West 410 472 43,100 -60 Level Gander Center
07:45PM 47.8333 -54.6833 244° Southwest 410 472 43,000 -60 Descending Gander Center
07:46PM 47.7833 -54.8333 244° Southwest 410 472 43,000  Level Gander Center
07:47PM 47.7333 -55.0000 246° West 410 472 43,100  Climbing Gander Center
07:48PM 47.7167 -55.1333 260° West 400 460 43,100  Level Moncton Center
07:49PM 47.6500 -55.2833 237° Southwest 400 460 43,100  Level Moncton Center
07:50PM 47.6167 -55.4500 254° West 410 472 43,100 -60 Level Gander Center
07:51PM 47.5667 -55.6167 246° West 400 460 43,000  Descending Gander Center
07:52PM 47.5333 -55.7667 252° West 410 472 43,100  Climbing Gander Center
07:53PM 47.4833 -55.9167 244° Southwest 410 472 43,100  Level Gander Center
07:54PM 47.4500 -56.0500 250° West 410 472 43,100 -60 Level Moncton Center
07:55PM 47.3833 -56.2333 242° Southwest 410 472 43,000  Descending Moncton Center
07:56PM 47.3500 -56.3667 250° West 410 472 43,100  Climbing Gander Center
07:57PM 47.3167 -56.5500 255° West 400 460 43,000 -60 Descending Gander Center
07:58PM 47.2667 -56.6833 241° Southwest 410 472 43,000  Level Gander Center
07:59PM 47.2000 -56.8500 240° Southwest 400 460 43,000  Level Gander Center
08:00PM 47.1667 -57.0000 252° West 410 472 43,100  Climbing Gander Center
08:01PM 47.1167 -57.1667 246° West 410 472 43,100  Level Gander Center
08:02PM 47.0667 -57.3167 244° Southwest 410 472 43,100  Level Gander Center
08:03PM 47.0333 -57.4667 252° West 400 460 43,100 -60 Level Gander Center
08:04PM 46.9833 -57.6167 244° Southwest 400 460 43,000 -60 Descending Gander Center
08:05PM 46.9333 -57.7333 238° Southwest 400 460 43,000  Level Gander Center
08:06PM 46.9167 -57.8833 261° West 400 460 43,100  Climbing Moncton Center
08:07PM 46.8500 -58.0333 237° Southwest 400 460 43,000  Descending Moncton Center
08:08PM 46.8000 -58.2167 248° West 400 460 43,100  Climbing Gander Center
08:09PM 46.7500 -58.3333 238° Southwest 400 460 43,100 -60 Level Gander Center
08:10PM 46.7167 -58.5000 254° West 400 460 43,000  Descending Gander Center
08:11PM 46.6667 -58.6167 238° Southwest 400 460 43,100  Climbing Moncton Center
08:12PM 46.6167 -58.7667 244° Southwest 400 460 43,000  Descending Moncton Center
08:13PM 46.5667 -58.9333 246° West 400 460 43,100  Climbing Gander Center
08:14PM 46.5167 -59.0667 241° Southwest 400 460 43,100  Level Gander Center
08:15PM 46.4833 -59.2167 252° West 400 460 43,100  Level Gander Center
08:16PM 46.4333 -59.3667 244° Southwest 400 460 43,100  Level Gander Center
08:17PM 46.3833 -59.5167 244° Southwest 400 460 43,100  Level Gander Center
08:18PM 46.3500 -59.6500 250° West 400 460 43,100  Level Moncton Center
08:20PM 46.2333 -59.9500 241° Southwest 400 460 43,100  Level Gander Center
08:21PM 46.2000 -60.0667 248° West 390 449 43,100 -60 Level Moncton Center
08:22PM 46.1500 -60.2167 244° Southwest 390 449 43,000  Descending Moncton Center
08:24PM 46.0333 -60.5167 241° Southwest 390 449 43,100  Climbing Gander Center
08:25PM 46.0000 -60.6667 252° West 410 472 43,100  Level Moncton Center
08:26PM 45.9500 -60.7833 238° Southwest 390 449 43,100  Level Moncton Center
08:27PM 45.9000 -60.9333 244° Southwest 390 449 43,100  Level Moncton Center
08:28PM 45.8667 -61.0833 252° West 390 449 43,100  Level Moncton Center
08:29PM 45.8000 -61.2333 238° Southwest 400 460 43,100  Level Moncton Center
08:31PM 45.7000 -61.5000 242° Southwest 390 449 43,100  Level Moncton Center
08:33PM 45.6167 -61.7667 246° West 390 449 43,100  Level Moncton Center
08:35PM 45.5167 -62.0333 242° Southwest 390 449 43,100 -60 Level Moncton Center
08:36PM 45.4667 -62.1833 245° Southwest 390 449 43,000  Descending Moncton Center
08:37PM 45.4000 -62.3167 235° Southwest 380 437 43,100  Climbing Moncton Center
08:39PM 45.3000 -62.6167 245° Southwest 390 449 43,100  Level Gander Center
08:40PM 45.2667 -62.7333 248° West 390 449 43,100  Level Moncton Center
08:41PM 45.2167 -62.8500 239° Southwest 390 449 43,100  Level Moncton Center
08:42PM 45.1667 -63.0000 245° Southwest 390 449 43,100  Level Moncton Center
08:43PM 45.1167 -63.1333 242° Southwest 390 449 43,100  Level Moncton Center
08:44PM 45.0667 -63.2667 242° Southwest 390 449 43,100  Level Moncton Center
08:45PM 45.0167 -63.4000 242° Southwest 390 449 43,100  Level Moncton Center
08:50PM 45.7830 -60.7590 242° Southwest 435 501 43,100  Level FlightAware
08:51PM 45.7670 -60.8180 249° West 435 501 43,100  Level FlightAware
08:52PM 45.7590 -60.8480 249° West 435 501 43,100  Level FlightAware
08:52PM 45.7830 -60.7590 69° East 435 501 43,100  Level FlightAware
08:53PM 45.7590 -60.8480 249° West 435 501 43,100  Level FlightAware
08:54PM 44.5667 -64.5833 249° West 410 472 43,100  Level Gander Center
08:55PM 44.4667 -64.7667 233° Southwest 400 460 43,100  Level Moncton Center
08:56PM 44.4167 -64.9167 245° Southwest 400 460 43,100  Level Moncton Center
08:57PM 44.3667 -65.0500 242° Southwest 400 460 43,100  Level Moncton Center
08:58PM 44.3167 -65.1667 239° Southwest 400 460 43,100  Level Moncton Center
08:59PM 44.2500 -65.3000 235° Southwest 400 460 43,100  Level Moncton Center
09:00PM 44.2000 -65.4500 245° Southwest 400 460 43,100  Level Moncton Center
09:01PM 44.1500 -65.5833 242° Southwest 400 460 43,100  Level Moncton Center
09:02PM 44.1000 -65.7167 242° Southwest 400 460 43,100  Level Moncton Center
09:03PM 44.0333 -65.8667 238° Southwest 400 460 43,100  Level Moncton Center
09:04PM 43.9667 -66.0000 235° Southwest 400 460 43,100  Level Moncton Center
09:05PM 43.9167 -66.1167 239° Southwest 410 472 43,100  Level Moncton Center
09:06PM 43.8500 -66.2667 238° Southwest 410 472 43,100  Level Moncton Center
09:07PM 43.8000 -66.3833 239° Southwest 410 472 43,100  Level Moncton Center
09:08PM 43.7500 -66.5333 245° Southwest 410 472 43,100  Level Moncton Center
09:09PM 43.7000 -66.6667 243° Southwest 400 460 43,100  Level Moncton Center
09:11PM 43.5667 -66.9333 235° Southwest 400 460 43,100 -60 Level Moncton Center
09:14PM 43.4875 -67.2592 252° West 417 480 43,000 -60 Descending Boston Center
09:15PM 43.4483 -67.4083 250° West 417 480 43,000  Level Boston Center
09:16PM 43.4069 -67.5578 249° West 417 480 43,000  Level Boston Center
09:16PM 43.3667 -67.6667 243° Southwest 410 472 43,000  Level Moncton Center
09:17PM 43.3167 -67.8000 243° Southwest 410 472 43,000  Level Moncton Center
09:18PM 43.2833 -67.9500 253° West 410 472 43,000  Level Moncton Center
09:19PM 43.2333 -68.0833 243° Southwest 410 472 43,000  Level Moncton Center
09:20PM 43.2000 -68.2500 255° West 410 472 43,000  Level Moncton Center
09:22PM 43.1569 -68.4206 251° West 412 474 43,000  Level Boston Center
09:23PM 43.1139 -68.5631 248° West 412 474 43,000  Level Boston Center
09:23PM 43.0667 -68.6667 238° Southwest 400 460 43,000 -660 Level Moncton Center
09:24PM 43.0333 -68.8000 251° West 400 460 41,900 -1,320 Descending Moncton Center
09:26PM 42.9842 -68.9969 251° West 400 460 40,000 -1,500 Descending Boston Center
09:27PM 42.9444 -69.1356 249° West 400 460 38,500 -1,500 Descending Boston Center
09:28PM 42.9025 -69.2739 248° West 400 460 37,000 -1,260 Descending Boston Center
09:29PM 42.8583 -69.4119 246° West 400 460 36,000 -480 Descending Boston Center
09:30PM 42.8161 -69.5528 248° West 400 460 36,100  Climbing Boston Center
09:31PM 42.7736 -69.6906 247° West 400 460 36,100 -60 Level Boston Center
09:32PM 42.7311 -69.8311 248° West 400 460 36,000 -1,140 Descending Boston Center
09:33PM 42.6861 -69.9714 246° West 405 466 33,900 -2,160 Descending Boston Center
09:34PM 42.6414 -70.1142 247° West 405 466 31,700 -2,280 Descending Boston Center
09:35PM 42.5942 -70.2628 247° West 415 478 29,400 -1,860 Descending Boston Center
09:36PM 42.5489 -70.4108 247° West 426 490 28,000 -720 Descending Boston Center
09:37PM 42.4994 -70.5589 246° West 426 490 28,000 -420 Level Boston Center
09:38PM 42.4517 -70.7039 246° West 426 490 27,200 -1,020 Descending Boston Center
09:39PM 42.4119 -70.8372 248° West 420 483 26,000 -1,140 Descending Boston Center
09:40PM 42.3764 -70.9814 252° West 420 483 25,000 -600 Descending Boston Center
09:41PM 42.3492 -71.1281 256° West 408 470 24,900 -300 Descending Boston Center
09:42PM 42.3319 -71.2775 261° West 403 464 24,500 -720 Descending Boston Center
09:43PM 42.3144 -71.4236 261° West 403 464 23,500 -1,140 Descending Boston Center
09:44PM 42.2950 -71.5869 261° West 403 464 22,300 -1,200 Descending Boston Center
09:45PM 42.2772 -71.7303 261° West 403 464 21,100 -1,200 Descending Boston Center
09:46PM 42.2614 -71.8761 262° West 403 464 19,900 -1,260 Descending Boston Center
09:47PM 42.2453 -72.0167 261° West 388 447 18,600 -1,200 Descending Boston Center
09:48PM 42.2292 -72.1542 261° West 383 441 17,500 -1,020 Descending Boston Center
09:49PM 42.2003 -72.2889 254° West 375 432 16,600 -720 Descending Boston Center
09:50PM 42.1628 -72.4119 248° West 375 432 16,100 -300 Descending Boston Center
09:51PM 42.1211 -72.5381 246° West 375 432 16,000 -60 Descending Boston Center
09:52PM 42.0792 -72.6639 246° West 375 432 16,000  Level Boston Center
09:53PM 42.0350 -72.7922 245° Southwest 375 432 16,000  Level Boston Center
09:54PM 41.9908 -72.9178 245° Southwest 380 437 16,000  Level Boston Center
09:55PM 41.9569 -73.0292 248° West 373 429 16,000  Level Boston Center
09:56PM 41.9103 -73.1681 246° West 373 429 16,000  Level Boston Center
09:57PM 41.8719 -73.2819 246° West 373 429 16,000 -300 Level Boston Center
09:58PM 41.8250 -73.4181 245° Southwest 378 435 15,500 -720 Descending Boston Center
09:59PM 41.7867 -73.5258 245° Southwest 373 429 14,600 -720 Descending Boston Center
10:00PM 41.7394 -73.6614 245° Southwest 373 429 14,100 -720 Descending Boston Center
10:01PM 41.7028 -73.7692 246° West 365 420 13,200 -1,020 Descending Boston Center
10:02PM 41.6575 -73.8989 245° Southwest 358 412 12,100 -600 Descending Boston Center
10:03PM 41.6247 -74.0092 248° West 358 412 12,000 -900 Descending Boston Center
10:04PM 41.6183 -74.1478 267° West 344 396 10,400 -1,200 Descending Boston Center
10:05PM 41.6125 -74.2589 266° West 325 374 9,600 -1,500 Descending Boston Center
10:06PM 41.5922 -74.3553 254° West 298 343 7,500 -1,320 Descending Boston Center
10:07PM 41.5389 -74.4314 227° Southwest 268 308 7,000 -540 Descending Boston Center
10:08PM 41.4500 -74.5500 225° Southwest 287 330 6,200 -420 Descending New York TRACON
10:09PM 41.3833 -74.5667 191° South 267 307 6,000 -60 Descending New York TRACON
10:10PM 41.3000 -74.5833 189° South 263 303 6,100 -180 Climbing New York TRACON
10:11PM 41.2333 -74.5833 180° South 263 303 5,700 -780 Descending New York TRACON
10:12PM 41.1667 -74.5667 169° South 263 303 4,600 -840 Descending New York TRACON
10:13PM 41.1000 -74.5500 169° South 274 315 4,100 -300 Descending New York TRACON
10:14PM 41.0167 -74.5167 163° South 273 314 4,100 -300 Level New York TRACON
10:15PM 40.9500 -74.5167 180° South 272 313 3,600 -540 Descending New York TRACON
10:16PM 40.8667 -74.4833 163° South 271 312 3,100 -300 Descending New York TRACON
10:17PM 40.8000 -74.4333 150° Southeast 270 311 3,000 -360 Descending New York TRACON
10:18PM 40.7500 -74.3667 135° Southeast 246 283 2,400 -480 Descending New York TRACON
10:19PM 40.7333 -74.2833 105° East 222 255 2,000 -360 Descending New York TRACON
10:20PM 40.7500 -74.2167 72° East 191 220 1,700 -300 Descending New York TRACON
10:21PM 40.7833 -74.1667 49° Northeast 194 223 1,500 -300 Descending New York TRACON
10:22PM 40.8000 -74.1333 57° Northeast 152 175 1,200 -540 Descending New York TRACON
10:23PM 40.8333 -74.0833 49° Northeast 132 152 500 -720 Descending New York TRACON
10:25PM 40.8500 -74.0500 64° Northeast  Level FlightAware Approximate
10:32PM 40.8501 -74.0608 64° Northeast  Level Estimated